Time;durP1;ratioP1;P1;durP2;ratioP2;P2;SDS_P1;SDS_P2;PMS_P1;PMS_P2;Temp;Humidity;BMP_temperature;BMP_pressure;BME280_temperature;BME280_humidity;BME280_pressure;Samples;Min_cycle;Max_cycle;Signal;HPM_P1;HPM_P2
2022/05/07 00:01:00;;;;;;;62.80;42.03;;;13.90;99.90;;;;;;5057409;28;20099;-66
2022/05/07 00:03:26;;;;;;;58.45;41.78;;;13.90;99.90;;;;;;5056943;28;20088;-65
2022/05/07 00:05:51;;;;;;;56.40;40.38;;;13.90;99.90;;;;;;5057210;28;20041;-66
2022/05/07 00:08:17;;;;;;;54.45;39.42;;;13.90;99.90;;;;;;5056923;28;20045;-67
2022/05/07 00:10:43;;;;;;;56.63;41.63;;;13.90;99.90;;;;;;5056828;28;20043;-66
2022/05/07 00:13:09;;;;;;;54.72;40.83;;;14.00;99.90;;;;;;5056222;28;20049;-65
2022/05/07 00:15:34;;;;;;;56.03;42.22;;;14.00;99.90;;;;;;5057180;28;20102;-66
2022/05/07 00:18:06;;;;;;;59.60;42.53;;;14.00;99.90;;;;;;5055909;28;20037;-65
2022/05/07 00:20:35;;;;;;;62.13;41.25;;;14.00;99.90;;;;;;5038552;28;20475;-67
2022/05/07 00:23:01;;;;;;;62.83;41.90;;;14.00;99.90;;;;;;5056493;28;20056;-66
2022/05/07 00:25:28;;;;;;;58.00;42.10;;;14.00;99.90;;;;;;5056833;28;20103;-66
2022/05/07 00:27:54;;;;;;;67.13;42.45;;;14.00;99.90;;;;;;5056690;28;20045;-66
2022/05/07 00:30:20;;;;;;;62.08;42.42;;;14.10;99.90;;;;;;5037826;28;20052;-66
2022/05/07 00:32:46;;;;;;;65.32;43.35;;;14.00;99.90;;;;;;5038182;28;20045;-65
2022/05/07 00:35:11;;;;;;;62.80;41.47;;;14.00;99.90;;;;;;5055976;28;20107;-65
2022/05/07 00:37:38;;;;;;;62.03;43.75;;;14.00;99.90;;;;;;5039426;28;20052;-66
2022/05/07 00:40:04;;;;;;;58.92;43.15;;;14.00;99.90;;;;;;5056540;28;20080;-66
2022/05/07 00:42:30;;;;;;;56.10;42.75;;;14.00;99.90;;;;;;5056523;28;20134;-66
2022/05/07 00:44:56;;;;;;;57.83;42.03;;;14.00;99.90;;;;;;5056365;28;20095;-65
2022/05/07 00:47:24;;;;;;;63.70;42.13;;;14.00;99.90;;;;;;5036648;28;20096;-65
2022/05/07 00:49:53;;;;;;;57.92;40.53;;;14.00;99.90;;;;;;5056144;28;20049;-66
2022/05/07 00:52:19;;;;;;;60.40;40.95;;;14.00;99.90;;;;;;5056035;28;20159;-67
2022/05/07 00:54:46;;;;;;;59.97;42.47;;;14.00;99.90;;;;;;5038941;28;20451;-66
2022/05/07 00:57:15;;;;;;;57.65;40.78;;;14.00;99.90;;;;;;5056238;28;20044;-67
2022/05/07 00:59:42;;;;;;;50.90;39.72;;;14.00;99.90;;;;;;5056035;28;20045;-67
2022/05/07 01:02:08;;;;;;;53.08;39.17;;;14.00;99.90;;;;;;5037749;28;20123;-66
2022/05/07 01:04:34;;;;;;;52.30;37.67;;;14.00;99.90;;;;;;5055936;28;20080;-66
2022/05/07 01:07:02;;;;;;;47.40;36.17;;;14.00;99.90;;;;;;5055947;28;20048;-66
2022/05/07 01:09:27;;;;;;;48.85;35.80;;;13.90;99.90;;;;;;5055799;28;20076;-67
2022/05/07 01:11:53;;;;;;;45.65;34.33;;;13.90;99.90;;;;;;5055627;28;20498;-66
2022/05/07 01:14:18;;;;;;;50.22;37.33;;;13.90;99.90;;;;;;5055744;28;20098;-67
2022/05/07 01:16:44;;;;;;;48.72;37.55;;;13.90;99.90;;;;;;5053489;28;20103;-66
2022/05/07 01:19:09;;;;;;;47.47;37.65;;;13.90;99.90;;;;;;5038530;28;20053;-66
2022/05/07 01:21:35;;;;;;;53.05;38.15;;;13.90;99.90;;;;;;5055773;28;20477;-67
2022/05/07 01:24:01;;;;;;;44.45;35.90;;;13.90;99.90;;;;;;5055420;28;20047;-66
2022/05/07 01:26:26;;;;;;;48.60;36.03;;;13.90;99.90;;;;;;5055453;28;20406;-66
2022/05/07 01:28:59;;;;;;;48.83;37.08;;;13.80;99.90;;;;;;5054649;28;20125;-66
2022/05/07 01:31:28;;;;;;;48.58;37.30;;;13.80;99.90;;;;;;5037913;28;20110;-66
2022/05/07 01:33:54;;;;;;;52.13;38.72;;;13.80;99.90;;;;;;5055295;28;20118;-66
2022/05/07 01:36:20;;;;;;;50.58;37.75;;;13.80;99.90;;;;;;5055171;28;20405;-65
2022/05/07 01:38:46;;;;;;;45.88;36.83;;;13.80;99.90;;;;;;5055688;28;20091;-66
2022/05/07 01:41:12;;;;;;;44.25;36.38;;;13.80;99.90;;;;;;5055133;28;20045;-66
2022/05/07 01:43:38;;;;;;;47.88;36.50;;;13.80;99.90;;;;;;5053121;28;20470;-66
2022/05/07 01:46:03;;;;;;;52.03;38.13;;;13.80;99.90;;;;;;5055140;28;20175;-66
2022/05/07 01:48:29;;;;;;;54.00;36.45;;;13.80;99.90;;;;;;5040423;28;20447;-66
2022/05/07 01:50:55;;;;;;;48.88;36.50;;;13.80;99.90;;;;;;5035567;28;20049;-67
2022/05/07 01:53:22;;;;;;;46.90;38.15;;;13.80;99.90;;;;;;5034923;28;20042;-67
2022/05/07 01:55:47;;;;;;;50.72;37.50;;;13.80;99.90;;;;;;5035323;28;20333;-66
2022/05/07 01:58:14;;;;;;;43.05;34.80;;;13.70;99.90;;;;;;5042887;28;20131;-66
2022/05/07 02:00:43;;;;;;;49.17;37.33;;;13.70;99.90;;;;;;5054604;28;20056;-65
2022/05/07 02:03:09;;;;;;;45.13;35.13;;;13.80;99.90;;;;;;5054822;28;20049;-66
2022/05/07 02:05:35;;;;;;;45.58;36.35;;;13.70;99.90;;;;;;5055060;28;20059;-66
2022/05/07 02:08:01;;;;;;;46.13;34.35;;;13.70;99.90;;;;;;5054900;28;20447;-65
2022/05/07 02:10:27;;;;;;;43.67;33.55;;;13.80;99.90;;;;;;5054578;28;20037;-65
2022/05/07 02:12:53;;;;;;;48.50;35.85;;;13.70;99.90;;;;;;5053349;28;20475;-66
2022/05/07 02:15:19;;;;;;;41.92;34.17;;;13.70;99.90;;;;;;5054752;28;20033;-67
2022/05/07 02:17:44;;;;;;;42.42;32.75;;;13.70;99.90;;;;;;5054904;28;20041;-67
2022/05/07 02:20:10;;;;;;;44.80;33.38;;;13.60;99.90;;;;;;5054811;28;20045;-66
2022/05/07 02:22:37;;;;;;;43.28;34.75;;;13.60;99.90;;;;;;5051335;28;20132;-66
2022/05/07 02:25:04;;;;;;;51.22;34.90;;;13.60;99.90;;;;;;5054794;28;20124;-66
2022/05/07 02:27:29;;;;;;;45.55;34.38;;;13.50;99.90;;;;;;5053914;28;20041;-64
2022/05/07 02:29:55;;;;;;;47.90;36.20;;;13.50;99.90;;;;;;5054257;28;20447;-66
2022/05/07 02:32:21;;;;;;;47.17;37.80;;;13.50;99.90;;;;;;5054549;28;20128;-65
2022/05/07 02:34:46;;;;;;;44.45;36.33;;;13.50;99.90;;;;;;5054351;28;20486;-65
2022/05/07 02:37:12;;;;;;;47.08;34.63;;;13.50;99.90;;;;;;5054554;28;20140;-66
2022/05/07 02:39:37;;;;;;;45.22;35.35;;;13.50;99.90;;;;;;5054526;28;20041;-66
2022/05/07 02:44:48;;;;;;;49.08;37.42;;;13.40;99.90;;;;;;5054514;28;20095;-66
2022/05/07 02:47:14;;;;;;;57.53;40.22;;;13.40;99.90;;;;;;5054499;28;20040;-65
2022/05/07 02:49:39;;;;;;;49.90;39.30;;;13.40;99.90;;;;;;5037050;28;20437;-66
2022/05/07 02:52:05;;;;;;;51.95;40.63;;;13.40;99.90;;;;;;5054234;28;20037;-67
2022/05/07 02:54:31;;;;;;;53.25;40.25;;;13.40;99.90;;;;;;5056113;28;20045;-66
2022/05/07 02:56:56;;;;;;;52.22;40.70;;;13.40;99.90;;;;;;5057758;28;20055;-66
2022/05/07 02:59:23;;;;;;;57.30;40.88;;;13.30;99.90;;;;;;5058270;28;20123;-65
2022/05/07 03:01:48;;;;;;;54.58;41.95;;;13.30;99.90;;;;;;5058377;28;20037;-66
2022/05/07 03:04:14;;;;;;;64.03;43.20;;;13.30;99.90;;;;;;5024412;28;20421;-64
2022/05/07 03:06:39;;;;;;;60.72;44.00;;;13.30;99.90;;;;;;5057806;28;20045;-65
2022/05/07 03:09:05;;;;;;;57.20;41.58;;;13.30;99.90;;;;;;5057885;28;20040;-65
2022/05/07 03:11:33;;;;;;;53.60;43.95;;;13.30;99.90;;;;;;5056068;28;20037;-66
2022/05/07 03:14:02;;;;;;;54.35;42.05;;;13.30;99.90;;;;;;5058197;28;20049;-65
2022/05/07 03:16:28;;;;;;;53.95;41.22;;;13.30;99.90;;;;;;5058082;28;20048;-65
2022/05/07 03:18:53;;;;;;;49.42;38.85;;;13.30;99.90;;;;;;5057979;28;20044;-66
2022/05/07 03:21:19;;;;;;;48.05;38.63;;;13.30;99.90;;;;;;5056918;28;20469;-66
2022/05/07 03:23:46;;;;;;;48.85;38.85;;;13.30;99.90;;;;;;5057607;28;20044;-65
2022/05/07 03:26:12;;;;;;;50.40;38.65;;;13.30;99.90;;;;;;5057441;28;20463;-65
2022/05/07 03:28:38;;;;;;;52.58;40.55;;;13.30;99.90;;;;;;5040158;28;20044;-65
2022/05/07 03:31:04;;;;;;;54.20;40.75;;;13.40;99.90;;;;;;5057982;28;20045;-66
2022/05/07 03:33:30;;;;;;;52.63;41.28;;;13.40;99.90;;;;;;5057703;28;20454;-65
2022/05/07 03:35:56;;;;;;;48.58;39.78;;;13.30;99.90;;;;;;5018658;28;20053;-65
2022/05/07 03:38:22;;;;;;;57.42;43.10;;;13.30;99.90;;;;;;5017894;28;20046;-65
2022/05/07 03:40:48;;;;;;;48.65;40.22;;;13.30;99.90;;;;;;5017751;28;20045;-65
2022/05/07 03:43:14;;;;;;;57.00;43.97;;;13.30;99.90;;;;;;5017870;28;20474;-64
2022/05/07 03:45:39;;;;;;;50.58;42.45;;;13.30;99.90;;;;;;5017657;28;20125;-64
2022/05/07 03:48:05;;;;;;;51.28;42.10;;;13.30;99.90;;;;;;5017773;28;20046;-66
2022/05/07 03:50:31;;;;;;;55.40;40.88;;;13.30;99.90;;;;;;5008442;28;20046;-65
2022/05/07 03:55:41;;;;;;;53.17;43.60;;;13.30;99.90;;;;;;5037345;28;20049;-66
2022/05/07 03:58:10;;;;;;;54.80;43.50;;;13.20;99.90;;;;;;5036829;28;20049;-65
2022/05/07 04:00:37;;;;;;;54.42;43.70;;;13.20;99.90;;;;;;5037450;28;20068;-65
2022/05/07 04:03:03;;;;;;;56.15;45.13;;;13.10;99.90;;;;;;5033553;28;20160;-65
2022/05/07 04:05:29;;;;;;;56.08;44.05;;;13.10;99.90;;;;;;5016445;28;20125;-64
2022/05/07 04:07:55;;;;;;;62.35;45.58;;;13.10;99.90;;;;;;5017564;28;20130;-65
2022/05/07 04:10:20;;;;;;;61.55;46.53;;;13.10;99.90;;;;;;5017605;28;20183;-65
2022/05/07 04:12:51;;;;;;;49.55;41.35;;;13.10;99.90;;;;;;5017046;28;20056;-65
2022/05/07 04:15:17;;;;;;;54.75;40.70;;;13.10;99.90;;;;;;5019131;28;20123;-65
2022/05/07 04:17:43;;;;;;;46.60;38.50;;;13.10;99.90;;;;;;5015951;28;20115;-65
2022/05/07 04:20:09;;;;;;;48.53;39.03;;;13.10;99.90;;;;;;5017046;28;20398;-66
2022/05/07 04:22:35;;;;;;;53.97;43.28;;;13.10;99.90;;;;;;5027465;28;20482;-65
2022/05/07 04:25:02;;;;;;;54.63;42.20;;;13.10;99.90;;;;;;5036425;28;20471;-66
2022/05/07 04:27:28;;;;;;;55.22;44.63;;;13.10;99.90;;;;;;5036760;28;20529;-66
2022/05/07 04:29:53;;;;;;;53.10;44.17;;;13.10;99.90;;;;;;5037050;28;20096;-65
2022/05/07 04:32:19;;;;;;;56.35;45.30;;;13.10;99.90;;;;;;5034294;28;20132;-65
2022/05/07 04:34:45;;;;;;;58.92;44.80;;;13.10;99.90;;;;;;5034913;28;20470;-66
2022/05/07 04:37:10;;;;;;;53.60;43.20;;;13.00;99.90;;;;;;5039133;28;20048;-66
2022/05/07 04:39:36;;;;;;;53.00;43.38;;;13.10;99.90;;;;;;5056365;28;20059;-66
2022/05/07 04:42:02;;;;;;;51.75;41.53;;;13.00;99.90;;;;;;5056811;28;20132;-64
2022/05/07 04:44:28;;;;;;;54.05;42.70;;;13.10;99.90;;;;;;5056333;28;20048;-66
2022/05/07 04:46:54;;;;;;;56.92;43.42;;;13.00;99.90;;;;;;5049558;28;20037;-65
2022/05/07 04:49:21;;;;;;;57.22;44.17;;;13.00;99.90;;;;;;5036539;28;20045;-64
2022/05/07 04:51:50;;;;;;;55.92;43.88;;;13.00;99.90;;;;;;5036225;28;20372;-65
2022/05/07 04:54:20;;;;;;;57.67;42.78;;;12.90;99.90;;;;;;5036284;28;20064;-66
2022/05/07 04:56:49;;;;;;;57.33;44.08;;;13.00;99.90;;;;;;5036370;28;20103;-64
2022/05/07 04:59:16;;;;;;;58.90;46.28;;;13.00;99.90;;;;;;5036245;28;20045;-65
2022/05/07 05:01:42;;;;;;;60.85;46.75;;;13.00;99.90;;;;;;5049079;28;20041;-65
2022/05/07 05:04:09;;;;;;;58.47;45.67;;;13.00;99.90;;;;;;5055898;28;20041;-66
2022/05/07 05:06:35;;;;;;;59.97;44.88;;;13.00;99.90;;;;;;5055834;28;20052;-65
2022/05/07 05:09:01;;;;;;;57.33;43.22;;;13.00;99.90;;;;;;5056029;28;20068;-65
2022/05/07 05:11:27;;;;;;;64.18;46.20;;;13.00;99.90;;;;;;5038485;28;20048;-66
2022/05/07 05:13:52;;;;;;;62.50;46.15;;;13.00;99.90;;;;;;5056138;28;20163;-66
2022/05/07 05:16:18;;;;;;;61.53;46.35;;;13.10;99.90;;;;;;5054430;28;20041;-64
2022/05/07 05:18:44;;;;;;;61.90;47.40;;;13.10;99.90;;;;;;5055391;28;20060;-65
2022/05/07 05:21:09;;;;;;;57.17;44.47;;;13.10;99.90;;;;;;5055763;28;20455;-65
2022/05/07 05:23:35;;;;;;;64.53;48.70;;;13.20;99.90;;;;;;5055545;28;20463;-66
2022/05/07 05:26:00;;;;;;;67.85;50.58;;;13.20;99.90;;;;;;5037859;28;20052;-66
2022/05/07 05:28:26;;;;;;;65.93;52.55;;;13.20;99.90;;;;;;5055633;28;20135;-65
2022/05/07 05:30:52;;;;;;;74.28;55.35;;;13.20;99.90;;;;;;5037116;28;20107;-65
2022/05/07 05:33:21;;;;;;;75.90;56.03;;;13.20;99.90;;;;;;5055334;28;20049;-65
2022/05/07 05:35:48;;;;;;;71.60;56.08;;;13.20;99.90;;;;;;5055339;28;20459;-64
2022/05/07 05:38:18;;;;;;;79.13;57.35;;;13.20;99.90;;;;;;5037805;28;20049;-65
2022/05/07 05:40:44;;;;;;;69.72;53.40;;;13.20;99.90;;;;;;5037674;28;20045;-65
2022/05/07 05:43:09;;;;;;;76.07;54.22;;;13.20;99.90;;;;;;5055122;28;20067;-65
2022/05/07 05:45:35;;;;;;;70.45;53.92;;;13.30;99.90;;;;;;5053422;28;20102;-65
2022/05/07 05:48:02;;;;;;;72.88;53.90;;;13.30;99.90;;;;;;5053894;28;20336;-66
2022/05/07 05:50:31;;;;;;;67.55;53.33;;;13.30;99.90;;;;;;5055293;28;20486;-66
2022/05/07 05:52:59;;;;;;;67.53;51.75;;;13.40;99.90;;;;;;5054932;28;20044;-65
2022/05/07 05:55:25;;;;;;;68.30;52.10;;;13.40;99.90;;;;;;5055050;28;20048;-66
2022/05/07 05:57:51;;;;;;;71.20;56.65;;;13.40;99.90;;;;;;5053212;28;20041;-65
2022/05/07 06:00:18;;;;;;;70.82;55.60;;;13.50;99.90;;;;;;5034849;28;20053;-66
2022/05/07 06:02:44;;;;;;;71.00;54.67;;;13.50;99.90;;;;;;5048140;28;20049;-66
2022/05/07 06:05:11;;;;;;;73.32;57.42;;;13.60;99.90;;;;;;5055169;28;20051;-67
2022/05/07 06:07:37;;;;;;;70.47;55.20;;;13.70;99.90;;;;;;5054930;28;20045;-67
2022/05/07 06:10:03;;;;;;;75.97;60.55;;;13.70;99.90;;;;;;5054868;28;20106;-66
2022/05/07 06:12:29;;;;;;;75.90;59.10;;;13.80;99.90;;;;;;5036338;28;20111;-65
2022/05/07 06:14:55;;;;;;;75.22;59.53;;;13.90;99.90;;;;;;5053718;28;20439;-65
2022/05/07 06:17:21;;;;;;;71.00;56.22;;;13.90;99.90;;;;;;5051375;28;20064;-67
2022/05/07 06:19:46;;;;;;;82.50;59.95;;;14.00;99.90;;;;;;5054380;28;20371;-67
2022/05/07 06:22:12;;;;;;;81.45;63.28;;;14.00;99.90;;;;;;5054730;28;20041;-65
2022/05/07 06:27:34;;;;;;;82.35;61.05;;;14.10;99.90;;;;;;5036194;28;20056;-66
2022/05/07 06:30:00;;;;;;;79.07;59.88;;;14.20;99.90;;;;;;5060371;28;20045;-66
2022/05/07 06:32:40;;;;;;;79.85;61.00;;;14.20;99.90;;;;;;5059819;28;20049;-66
2022/05/07 06:35:07;;;;;;;85.20;64.25;;;14.20;99.90;;;;;;5060118;28;20374;-67
2022/05/07 06:37:35;;;;;;;85.70;63.50;;;14.10;99.90;;;;;;5060943;28;20060;-66
2022/05/07 06:40:04;;;;;;;80.68;62.50;;;14.20;99.90;;;;;;5061158;28;20037;-64
2022/05/07 06:42:29;;;;;;;83.95;64.00;;;14.10;99.90;;;;;;5061306;28;20102;-64
2022/05/07 06:44:55;;;;;;;86.65;62.70;;;14.10;99.90;;;;;;5061183;28;20041;-65
2022/05/07 06:47:21;;;;;;;90.00;63.50;;;14.10;99.90;;;;;;5061003;28;20060;-63
2022/05/07 06:49:46;;;;;;;83.38;60.60;;;14.10;99.90;;;;;;5059369;28;20520;-63
2022/05/07 06:52:12;;;;;;;85.88;63.85;;;14.10;99.90;;;;;;5043241;28;20458;-64
2022/05/07 06:54:38;;;;;;;85.15;64.80;;;14.10;99.90;;;;;;5043878;28;20067;-63
2022/05/07 06:57:04;;;;;;;97.22;69.88;;;14.10;99.90;;;;;;5061000;28;20128;-64
2022/05/07 06:59:30;;;;;;;88.80;65.68;;;14.10;99.90;;;;;;5061142;28;20037;-65
2022/05/07 07:01:57;;;;;;;90.90;67.35;;;14.10;99.90;;;;;;5060924;28;20044;-64
2022/05/07 07:04:23;;;;;;;85.72;65.07;;;14.10;99.90;;;;;;5060339;28;20068;-64
2022/05/07 07:06:50;;;;;;;92.03;66.45;;;14.10;99.90;;;;;;5060130;28;20063;-64
2022/05/07 07:09:16;;;;;;;87.05;64.22;;;14.10;99.90;;;;;;5061216;28;20045;-67
2022/05/07 07:11:41;;;;;;;86.20;63.45;;;14.10;99.90;;;;;;5060908;28;20044;-64
2022/05/07 07:14:07;;;;;;;94.28;65.50;;;14.10;99.90;;;;;;5060822;28;20116;-67
2022/05/07 07:16:33;;;;;;;88.22;63.92;;;14.10;99.90;;;;;;5061135;28;20044;-64
2022/05/07 07:18:59;;;;;;;88.20;64.97;;;14.10;99.90;;;;;;5043339;28;20450;-65
2022/05/07 07:21:24;;;;;;;93.13;66.95;;;14.10;99.90;;;;;;5060377;28;20033;-64
2022/05/07 07:23:50;;;;;;;93.93;63.80;;;14.20;99.90;;;;;;5060530;28;20109;-65
2022/05/07 07:26:15;;;;;;;88.75;63.65;;;14.20;99.90;;;;;;5060774;28;20530;-66
2022/05/07 07:28:41;;;;;;;88.30;64.43;;;14.10;99.90;;;;;;5060804;28;20049;-63
2022/05/07 07:31:10;;;;;;;90.10;63.08;;;14.10;99.90;;;;;;5060878;28;20124;-63
2022/05/07 07:33:39;;;;;;;91.38;62.58;;;14.10;99.90;;;;;;5059880;28;20036;-65
2022/05/07 07:36:09;;;;;;;82.95;59.38;;;14.10;99.90;;;;;;5059932;28;20076;-64
2022/05/07 07:38:38;;;;;;;85.45;60.30;;;14.20;99.90;;;;;;5060646;28;20127;-62
2022/05/07 07:41:07;;;;;;;74.80;55.55;;;14.20;99.90;;;;;;5056978;28;20041;-64
2022/05/07 07:43:33;;;;;;;83.95;58.70;;;14.20;99.90;;;;;;5057446;28;20045;-65
2022/05/07 07:48:43;;;;;;;80.97;55.30;;;14.30;99.90;;;;;;5056654;28;20045;-63
2022/05/07 07:51:09;;;;;;;75.80;53.53;;;14.50;99.90;;;;;;5057290;28;20064;-65
2022/05/07 07:53:37;;;;;;;78.22;52.75;;;14.50;99.90;;;;;;5040123;28;20060;-65
2022/05/07 07:56:03;;;;;;;74.82;54.38;;;14.50;99.90;;;;;;5056965;28;20465;-65
2022/05/07 07:58:29;;;;;;;77.95;53.92;;;14.60;99.90;;;;;;5054464;28;20377;-65
2022/05/07 08:00:54;;;;;;;76.88;52.33;;;14.60;99.90;;;;;;5039422;28;20132;-65
2022/05/07 08:03:20;;;;;;;72.38;51.78;;;14.60;99.90;;;;;;5038539;28;20080;-63
2022/05/07 08:05:51;;;;;;;68.93;51.22;;;14.70;99.90;;;;;;5057097;28;20059;-65
2022/05/07 08:13:48;;;;;;;65.57;48.20;;;14.90;99.90;;;;;;5056566;28;20092;-66
2022/05/07 08:16:17;;;;;;;60.20;44.28;;;14.90;99.90;;;;;;5056909;28;20044;-65
2022/05/07 08:18:43;;;;;;;55.90;44.35;;;14.90;99.90;;;;;;5055977;28;20375;-65
2022/05/07 08:21:10;;;;;;;60.55;42.60;;;14.90;99.90;;;;;;5056742;28;20055;-64
2022/05/07 08:23:37;;;;;;;58.20;43.75;;;14.90;99.90;;;;;;5056782;28;20472;-66
2022/05/07 08:26:04;;;;;;;66.95;50.15;;;15.00;99.90;;;;;;5056422;28;20040;-65
2022/05/07 08:28:30;;;;;;;68.22;47.65;;;15.00;99.90;;;;;;5038830;28;20429;-66
2022/05/07 08:30:57;;;;;;;60.45;45.50;;;14.90;99.90;;;;;;5056584;28;20052;-65
2022/05/07 08:33:22;;;;;;;61.45;47.70;;;15.00;99.90;;;;;;5055834;28;20375;-65
2022/05/07 08:35:48;;;;;;;65.15;47.30;;;15.10;99.90;;;;;;5056461;28;20064;-65
2022/05/07 08:38:14;;;;;;;61.10;44.20;;;15.20;99.90;;;;;;5056623;28;20045;-65
2022/05/07 08:40:40;;;;;;;61.60;45.20;;;15.30;99.90;;;;;;5056474;28;20048;-66
2022/05/07 08:43:06;;;;;;;67.93;48.88;;;15.30;99.90;;;;;;5056382;28;20067;-65
2022/05/07 08:45:32;;;;;;;61.42;46.72;;;15.40;99.90;;;;;;5056378;28;20041;-65
2022/05/07 08:47:59;;;;;;;64.85;46.70;;;15.50;99.90;;;;;;5055415;28;20073;-65
2022/05/07 08:50:26;;;;;;;64.50;47.28;;;15.60;99.90;;;;;;5056221;28;20036;-65
2022/05/07 08:52:53;;;;;;;66.00;49.13;;;15.60;99.90;;;;;;5055194;28;20045;-65
2022/05/07 08:55:19;;;;;;;62.38;44.88;;;15.60;99.90;;;;;;5055753;28;20048;-65
2022/05/07 08:57:47;;;;;;;58.80;42.92;;;15.70;99.90;;;;;;5056111;28;20090;-65
2022/05/07 09:00:15;;;;;;;58.30;43.72;;;15.70;99.90;;;;;;5056142;28;20045;-65
2022/05/07 09:02:43;;;;;;;61.55;44.38;;;15.60;99.90;;;;;;5035982;28;20068;-65
2022/05/07 09:05:11;;;;;;;59.92;44.45;;;15.60;99.90;;;;;;5055138;28;20403;-66
2022/05/07 09:07:40;;;;;;;62.50;44.65;;;15.70;99.90;;;;;;5056015;28;20052;-65
2022/05/07 09:10:14;;;;;;;57.67;42.60;;;15.60;99.90;;;;;;5055902;28;20052;-65
2022/05/07 09:12:39;;;;;;;62.17;39.33;;;15.70;99.90;;;;;;5055658;28;20062;-66
2022/05/07 09:15:07;;;;;;;51.85;35.53;;;15.60;99.90;;;;;;5038572;28;20048;-65
2022/05/07 09:17:33;;;;;;;45.65;33.17;;;15.60;99.90;;;;;;5055690;28;20048;-64
2022/05/07 09:20:11;;;;;;;43.78;31.70;;;15.60;99.90;;;;;;5055214;28;20119;-65
2022/05/07 09:22:54;;;;;;;43.00;30.45;;;15.60;99.90;;;;;;5055067;28;20094;-65
2022/05/07 09:25:22;;;;;;;37.92;28.75;;;15.60;99.90;;;;;;5038198;28;20049;-65
2022/05/07 09:27:51;;;;;;;47.83;35.63;;;15.50;99.90;;;;;;5055812;28;20049;-64
2022/05/07 09:30:22;;;;;;;48.92;36.50;;;15.40;99.90;;;;;;5055053;28;20064;-68
2022/05/07 09:32:50;;;;;;;54.60;39.53;;;15.50;99.90;;;;;;5055077;28;20173;-65
2022/05/07 09:38:02;;;;;;;53.63;36.83;;;15.60;99.90;;;;;;5054154;28;20455;-64
2022/05/07 09:40:30;;;;;;;54.30;38.75;;;15.70;99.90;;;;;;5055368;28;20045;-63
2022/05/07 09:42:59;;;;;;;53.13;38.50;;;15.70;99.90;;;;;;5052857;28;20051;-64
2022/05/07 09:45:30;;;;;;;53.08;38.47;;;15.80;99.90;;;;;;5054504;28;20474;-66
2022/05/07 09:47:57;;;;;;;46.85;35.67;;;15.90;99.90;;;;;;5055077;28;20052;-64
2022/05/07 09:50:24;;;;;;;52.08;40.53;;;16.10;99.90;;;;;;5052077;28;20045;-64
2022/05/07 09:58:20;;;;;;;48.55;32.63;;;16.50;99.90;;;;;;5054670;28;19929;-75
2022/05/07 10:01:20;;;;;;;43.38;29.83;;;16.40;99.90;;;;;;5054867;28;20075;-69
2022/05/07 10:03:54;;;;;;;30.45;21.23;;;16.50;99.90;;;;;;5054543;28;20107;-72
2022/05/07 10:06:46;;;;;;;21.88;15.00;;;16.60;99.90;;;;;;5054106;28;20470;-69
2022/05/07 10:09:25;;;;;;;15.85;12.27;;;16.80;99.90;;;;;;5054907;28;20049;-70
2022/05/07 10:11:53;;;;;;;14.02;10.40;;;16.60;99.90;;;;;;5054173;28;20045;-71
2022/05/07 10:14:31;;;;;;;17.17;11.18;;;16.70;99.90;;;;;;5054625;28;20049;-72
2022/05/07 10:17:01;;;;;;;17.50;12.25;;;16.80;99.90;;;;;;5054351;28;20053;-74
2022/05/07 10:19:35;;;;;;;18.90;13.98;;;16.80;99.90;;;;;;5055048;28;20077;-72
2022/05/07 10:22:01;;;;;;;22.75;15.00;;;16.80;99.90;;;;;;5055004;28;20091;-71
2022/05/07 10:24:27;;;;;;;24.00;16.05;;;16.90;99.90;;;;;;5054746;28;20403;-72
2022/05/07 10:26:53;;;;;;;20.83;17.50;;;16.90;99.90;;;;;;5054584;28;20147;-74
2022/05/07 10:29:29;;;;;;;24.00;18.38;;;16.80;99.90;;;;;;5053475;28;20120;-72
2022/05/07 10:32:03;;;;;;;25.17;17.02;;;16.80;99.90;;;;;;5053850;28;20041;-71
2022/05/07 10:34:28;;;;;;;23.35;17.67;;;16.80;99.90;;;;;;5020280;28;20044;-70
2022/05/07 10:37:05;;;;;;;28.83;20.55;;;16.70;99.90;;;;;;5054855;28;20048;-70
2022/05/07 10:39:31;;;;;;;23.27;17.70;;;16.80;99.90;;;;;;5054153;28;20522;-72
2022/05/07 10:41:58;;;;;;;21.20;18.38;;;16.80;99.90;;;;;;5054216;28;20486;-70
2022/05/07 10:44:34;;;;;;;26.90;20.92;;;16.90;99.90;;;;;;5053193;28;20119;-73
2022/05/07 10:47:18;;;;;;;27.80;21.60;;;16.80;99.90;;;;;;5054115;28;20037;-70
2022/05/07 10:50:13;;;;;;;23.38;19.63;;;16.80;99.90;;;;;;5037213;28;20063;-70
2022/05/07 10:52:38;;;;;;;;;;;16.70;99.90;;;;;;5052166;28;20084;-72
2022/05/07 10:55:08;;;;;;;24.30;18.98;;;16.70;99.90;;;;;;5053542;28;20319;-71
2022/05/07 10:57:41;;;;;;;26.45;20.30;;;16.80;99.90;;;;;;5054489;28;20045;-75
2022/05/07 11:00:14;;;;;;;24.77;20.02;;;16.80;99.90;;;;;;5054439;28;20087;-74
2022/05/07 11:02:40;;;;;;;25.80;19.80;;;16.80;99.90;;;;;;5019209;28;20080;-75
2022/05/07 11:05:07;;;;;;;26.10;19.63;;;16.90;99.90;;;;;;5054241;28;20122;-74
2022/05/07 11:07:33;;;;;;;26.75;20.10;;;16.90;99.90;;;;;;5054524;28;20055;-75
2022/05/07 11:09:58;;;;;;;26.70;19.55;;;17.10;99.90;;;;;;5036805;28;20033;-74
2022/05/07 11:12:26;;;;;;;24.40;19.33;;;17.20;99.90;;;;;;5053592;28;20199;-74
2022/05/07 11:14:52;;;;;;;23.70;17.90;;;17.30;99.90;;;;;;5055506;28;20048;-73
2022/05/07 11:17:32;;;;;;;24.13;18.50;;;17.40;99.90;;;;;;5058164;28;20078;-75
2022/05/07 11:19:58;;;;;;;27.02;19.20;;;17.50;99.90;;;;;;5058161;28;20124;-74
2022/05/07 11:22:30;;;;;;;21.73;17.95;;;17.70;99.90;;;;;;5040654;28;20092;-74
2022/05/07 11:25:01;;;;;;;25.33;18.73;;;17.90;99.90;;;;;;5040509;28;20052;-73
2022/05/07 11:27:32;;;;;;;25.00;19.67;;;17.90;99.90;;;;;;5039452;28;20044;-75
2022/05/07 11:29:58;;;;;;;24.50;18.50;;;17.80;99.90;;;;;;5023996;28;20110;-74
2022/05/07 11:32:35;;;;;;;23.00;17.70;;;17.80;99.90;;;;;;5057629;28;20070;-73
2022/05/07 11:35:00;;;;;;;29.63;19.30;;;17.80;99.90;;;;;;5029073;28;20065;-75
2022/05/07 11:37:26;;;;;;;21.00;16.85;;;17.90;99.90;;;;;;5017513;28;20073;-74
2022/05/07 11:39:52;;;;;;;23.85;18.60;;;17.90;99.90;;;;;;5017917;28;20133;-74
2022/05/07 11:45:44;;;;;;;26.10;20.17;;;18.10;99.90;;;;;;5016898;28;20050;-73
2022/05/07 11:48:09;;;;;;;23.05;17.05;;;17.90;99.90;;;;;;5017853;28;20322;-74
2022/05/07 11:50:41;;;;;;;23.75;16.92;;;17.80;99.90;;;;;;5000280;28;20056;-73
2022/05/07 11:53:11;;;;;;;21.83;16.75;;;18.00;99.90;;;;;;5016509;28;20157;-76
2022/05/07 11:55:37;;;;;;;21.85;16.50;;;18.30;99.90;;;;;;5017573;28;20054;-75
2022/05/07 11:58:12;;;;;;;21.38;16.40;;;18.30;99.90;;;;;;5016382;28;20060;-74
2022/05/07 12:00:42;;;;;;;19.85;16.95;;;18.20;99.90;;;;;;5017704;28;20038;-75
2022/05/07 12:03:08;;;;;;;19.63;15.98;;;18.20;99.90;;;;;;5017415;28;20065;-74
2022/05/07 12:05:42;;;;;;;23.45;17.10;;;18.10;99.90;;;;;;5017557;28;20140;-75
2022/05/07 12:08:17;;;;;;;19.25;16.42;;;18.20;99.90;;;;;;5016478;28;20038;-74
2022/05/07 12:10:45;;;;;;;20.25;16.38;;;18.20;99.90;;;;;;5016662;28;20077;-75
2022/05/07 12:13:13;;;;;;;22.25;17.42;;;18.20;99.90;;;;;;5017289;28;20041;-73
2022/05/07 12:18:24;;;;;;;17.25;14.23;;;18.30;99.90;;;;;;5017205;28;20046;-73
2022/05/07 12:20:50;;;;;;;18.85;13.55;;;18.40;99.90;;;;;;5016384;28;20058;-73
2022/05/07 12:31:28;;;;;;;16.13;12.02;;;18.50;99.90;;;;;;5016889;28;20061;-73
2022/05/07 12:33:53;;;;;;;16.05;12.95;;;18.60;99.90;;;;;;5017024;28;20046;-75
2022/05/07 12:36:19;;;;;;;17.80;13.15;;;18.70;99.90;;;;;;5047778;28;20045;-76
2022/05/07 12:38:45;;;;;;;16.95;12.80;;;18.40;99.90;;;;;;5056595;28;20193;-74
2022/05/07 12:41:10;;;;;;;15.80;12.77;;;18.20;99.90;;;;;;5056713;28;20041;-74
2022/05/07 12:43:36;;;;;;;15.13;12.00;;;18.10;99.90;;;;;;5038712;28;20053;-73
2022/05/07 12:46:01;;;;;;;11.60;9.77;;;18.20;99.90;;;;;;5056619;28;20048;-74
2022/05/07 12:48:27;;;;;;;11.55;8.88;;;18.60;99.90;;;;;;5057111;28;20037;-73
2022/05/07 12:50:53;;;;;;;12.55;8.80;;;19.50;99.90;;;;;;5037950;28;20049;-75
2022/05/07 12:53:18;;;;;;;14.73;9.02;;;20.20;99.90;;;;;;5056163;28;20041;-73
2022/05/07 12:55:44;;;;;;;14.25;9.50;;;21.00;99.90;;;;;;5056214;28;20045;-76
2022/05/07 12:58:11;;;;;;;10.13;8.45;;;21.20;99.90;;;;;;5056190;28;20055;-76
2022/05/07 13:00:38;;;;;;;11.80;8.70;;;21.30;99.90;;;;;;5056129;28;20429;-75
2022/05/07 13:03:04;;;;;;;9.75;8.23;;;21.50;99.90;;;;;;5056074;28;20111;-75
2022/05/07 13:05:30;;;;;;;13.05;9.20;;;22.00;99.90;;;;;;5055270;28;20083;-72
2022/05/07 13:07:56;;;;;;;11.93;9.45;;;21.80;99.90;;;;;;5056565;28;20084;-76